RYR24T EBBR-EDDF
Flight info
| Callsign | RYR24T |
|---|---|
| Flight time | N/A |
| Altitude | 30000 |
| Route | SPI T180 NIVNU T847 IMCOM |
| Aircraft | B38M/M-SDE1FGHILORVWXY/HB1 |
Departure
| Time | 2026-04-30 15:03 |
|---|---|
| Airport | Brussels Airport (EBBR) |
Arrival
| Time | N/A |
|---|---|
| Airport | Frankfurt Main Airport (EDDF) |
| Time | Latitude | Longitude | Altitude | Speed | Heading |
|---|---|---|---|---|---|
| 2026-04-30 14:43 | 50.89798 | 4.49076 | 193 ft | 0 kts | 155° |
| 2026-04-30 14:48 | 50.89798 | 4.49075 | 193 ft | 0 kts | 155° |
| 2026-04-30 14:49 | 50.89804 | 4.49072 | 193 ft | 1 kts | 185° |
| 2026-04-30 14:49 | 50.89816 | 4.49080 | 193 ft | 2 kts | 202° |
| 2026-04-30 14:50 | 50.89833 | 4.49080 | 193 ft | 1 kts | 123° |
| 2026-04-30 14:50 | 50.89835 | 4.49067 | 193 ft | 1 kts | 80° |
| 2026-04-30 14:51 | 50.89831 | 4.49053 | 193 ft | 0 kts | 65° |
| 2026-04-30 14:53 | 50.89836 | 4.49070 | 193 ft | 3 kts | 64° |
| 2026-04-30 14:53 | 50.89848 | 4.49113 | 193 ft | 3 kts | 72° |
| 2026-04-30 14:54 | 50.89851 | 4.49139 | 193 ft | 0 kts | 81° |
| 2026-04-30 14:54 | 50.89818 | 4.49160 | 193 ft | 5 kts | 179° |
| 2026-04-30 14:55 | 50.89758 | 4.49164 | 193 ft | 5 kts | 175° |
| 2026-04-30 14:55 | 50.89716 | 4.49162 | 193 ft | 7 kts | 187° |
| 2026-04-30 14:55 | 50.89590 | 4.49082 | 193 ft | 11 kts | 200° |
| 2026-04-30 14:56 | 50.89420 | 4.49011 | 193 ft | 13 kts | 194° |
| 2026-04-30 14:56 | 50.89286 | 4.48848 | 193 ft | 12 kts | 247° |
| 2026-04-30 14:57 | 50.89251 | 4.48704 | 193 ft | 15 kts | 247° |
| 2026-04-30 14:57 | 50.89171 | 4.48375 | 193 ft | 17 kts | 248° |
| 2026-04-30 14:58 | 50.89088 | 4.48009 | 193 ft | 16 kts | 248° |
| 2026-04-30 14:58 | 50.89067 | 4.47943 | 193 ft | 0 kts | 234° |
| 2026-04-30 14:59 | 50.89067 | 4.47942 | 193 ft | 0 kts | 234° |
| 2026-04-30 15:00 | 50.89017 | 4.47926 | 193 ft | 4 kts | 162° |
| 2026-04-30 15:00 | 50.88947 | 4.48001 | 193 ft | 9 kts | 117° |
| 2026-04-30 15:01 | 50.88946 | 4.48206 | 193 ft | 0 kts | 68° |
| 2026-04-30 15:02 | 50.88947 | 4.48208 | 193 ft | 1 kts | 68° |
| 2026-04-30 15:02 | 50.88972 | 4.48312 | 193 ft | 34 kts | 70° |
| 2026-04-30 15:03 | 50.89925 | 4.52454 | 1152 ft | 182 kts | 70° |
| 2026-04-30 15:03 | 50.91102 | 4.56471 | 2628 ft | 226 kts | 65° |
| 2026-04-30 15:04 | 50.92744 | 4.61185 | 4216 ft | 258 kts | 66° |
| 2026-04-30 15:04 | 50.94685 | 4.69477 | 6876 ft | 284 kts | 78° |
| 2026-04-30 15:05 | 50.94709 | 4.78665 | 9428 ft | 290 kts | 127° |
| 2026-04-30 15:06 | 50.92307 | 4.83965 | 10629 ft | 324 kts | 121° |
| 2026-04-30 15:06 | 50.90138 | 4.90839 | 11183 ft | 372 kts | 122° |
| 2026-04-30 15:07 | 50.87612 | 4.98065 | 12275 ft | 375 kts | 122° |
| 2026-04-30 15:07 | 50.85052 | 5.05318 | 13356 ft | 382 kts | 122° |
| 2026-04-30 15:08 | 50.82430 | 5.12689 | 14436 ft | 390 kts | 122° |
| 2026-04-30 15:08 | 50.78384 | 5.24000 | 16053 ft | 402 kts | 122° |
| 2026-04-30 15:09 | 50.75605 | 5.31735 | 17132 ft | 409 kts | 123° |
| 2026-04-30 15:09 | 50.72777 | 5.39585 | 18214 ft | 413 kts | 123° |
| 2026-04-30 15:10 | 50.69944 | 5.47423 | 19287 ft | 416 kts | 123° |
| 2026-04-30 15:11 | 50.64214 | 5.63206 | 21443 ft | 411 kts | 123° |
| 2026-04-30 15:11 | 50.61415 | 5.70883 | 22521 ft | 401 kts | 125° |
| 2026-04-30 15:12 | 50.57244 | 5.82256 | 23280 ft | 413 kts | 125° |
| 2026-04-30 15:13 | 50.54299 | 5.90254 | 23292 ft | 433 kts | 124° |
| 2026-04-30 15:14 | 50.48035 | 6.07210 | 23307 ft | 465 kts | 124° |
| 2026-04-30 15:14 | 50.43066 | 6.20586 | 23313 ft | 482 kts | 124° |
| 2026-04-30 15:16 | 50.36090 | 6.44812 | 23296 ft | 501 kts | 98° |
| 2026-04-30 15:17 | 50.34635 | 6.66411 | 23286 ft | 499 kts | 107° |
| 2026-04-30 15:18 | 50.28750 | 6.91644 | 23291 ft | 498 kts | 112° |
| 2026-04-30 15:19 | 50.25260 | 7.06940 | 23302 ft | 498 kts | 112° |